SBJP/JPA METAR and TAF weather

Enter ICAO airport designator
Station Type Date Time Source
SBJP METAR 2019/02/17 15:00 UTC NOAA

SBJP 171500Z 06009KT 9999 BKN025 29/23 Q1013


Station Type Date Time Source
SBJP Decoded METAR 2019/02/17 15:00 UTC NOAA

Joao Pessoa, Brazil (SBJP) 07-06S 034-52W
Feb 17, 2019 - 10:00 AM EST / 2019.02.17 1500 UTC
Wind: from the ENE (060 degrees) at 10 MPH (9 KT):0
Visibility: greater than 7 mile(s):0
Sky conditions: mostly cloudy
Temperature: 84 F (29 C)
Dew Point: 73 F (23 C)
Relative Humidity: 70%
Pressure (altimeter): 29.91 in. Hg (1013 hPa)
ob: SBJP 171500Z 06009KT 9999 BKN025 29/23 Q1013
cycle: 15

Station Type Date Time Source
SBJP TAF 2019/02/17 18:39 UTC NOAA

TAF TAF SBJP 171600Z 1718/1818 06008KT 8000 SCT020 TN22/1808Z TX30/1816Z
BECMG 1800/1802 19005KT
BECMG 1810/1812 07010KT BKN020
RMK PCH


Example: see airport list